Observation data for Saint Lawrence on 05/15/2018      Previous  Date  Next       Current Mesonet Observations  Soil Data  Daily Summary Page  Observations in Plain Language
KST1 150500Z 14013KT 21/14 A2997 RMK A01 T02140141  RH  064%=      5-min Rain = 0
KST1 150505Z 14013KT 21/14 A2997 RMK A01 T02140142  RH  065%=      5-min Rain = 0
KST1 150510Z 14013KT 21/14 A2998 RMK A01 T02140143  RH  065%=      5-min Rain = 0
KST1 150515Z 14013KT 21/15 A2998 RMK A01 T02140145  RH  066%=      5-min Rain = 0
KST1 150520Z 14012KT 21/15 A2998 RMK A01 T02140146  RH  067%=      5-min Rain = 0
KST1 150525Z 14013KT 21/15 A2998 RMK A01 T02140148  RH  068%=      5-min Rain = 0
KST1 150530Z 15014KT 22/15 A2998 RMK A01 T02150152  RH  069%=      5-min Rain = 0
KST1 150535Z 15014KT 22/15 A2998 RMK A01 T02160154  RH  069%=      5-min Rain = 0
KST1 150540Z 15015KT 22/16 A2998 RMK A01 T02170156  RH  070%=      5-min Rain = 0
KST1 150545Z 15015KT 22/16 A2998 RMK A01 T02170157  RH  070%=      5-min Rain = 0
KST1 150550Z 15016KT 22/16 A2998 RMK A01 T02180159  RH  071%=      5-min Rain = 0
KST1 150555Z 15017KT 22/16 A2998 RMK A01 T02170159  RH  071%=      5-min Rain = 0
KST1 150600Z 15016KT 22/16 A2998 RMK A01 T02170158  RH  071%=      5-min Rain = 0
KST1 150605Z 15015KT 22/16 A2998 RMK A01 T02150158  RH  071%=      5-min Rain = 0
KST1 150610Z 14015KT 21/16 A2998 RMK A01 T02140158  RH  072%=      5-min Rain = 0
KST1 150615Z 14015KT 21/16 A2998 RMK A01 T02130157  RH  072%=      5-min Rain = 0
KST1 150620Z 14014KT 21/16 A2998 RMK A01 T02130156  RH  071%=      5-min Rain = 0
KST1 150625Z 14013KT 21/15 A2998 RMK A01 T02120154  RH  071%=      5-min Rain = 0
KST1 150630Z 14013KT 21/15 A2998 RMK A01 T02120153  RH  071%=      5-min Rain = 0
KST1 150635Z 14011KT 21/15 A2998 RMK A01 T02110151  RH  070%=      5-min Rain = 0
KST1 150640Z 14011KT 21/15 A2998 RMK A01 T02110150  RH  070%=      5-min Rain = 0
KST1 150645Z 14011KT 21/15 A2998 RMK A01 T02100148  RH  069%=      5-min Rain = 0
KST1 150650Z 14011KT 21/15 A2997 RMK A01 T02090147  RH  069%=      5-min Rain = 0
KST1 150655Z 15010KT 21/15 A2998 RMK A01 T02080145  RH  069%=      5-min Rain = 0
KST1 150700Z 15011KT 21/14 A2997 RMK A01 T02070144  RH  068%=      5-min Rain = 0
KST1 150705Z 15010KT 21/14 A2997 RMK A01 T02060142  RH  068%=      5-min Rain = 0
KST1 150710Z 15011KT 21/14 A2997 RMK A01 T02060140  RH  067%=      5-min Rain = 0
KST1 150715Z 15011KT 21/14 A2997 RMK A01 T02060138  RH  066%=      5-min Rain = 0
KST1 150720Z 15011KT 21/14 A2997 RMK A01 T02050136  RH  066%=      5-min Rain = 0
KST1 150725Z 15011KT 20/13 A2996 RMK A01 T02040134  RH  065%=      5-min Rain = 0
KST1 150730Z 14010KT 20/13 A2997 RMK A01 T02040132  RH  065%=      5-min Rain = 0
KST1 150735Z 14009KT 20/13 A2996 RMK A01 T02020131  RH  065%=      5-min Rain = 0
KST1 150740Z 14010KT 20/13 A2996 RMK A01 T02010130  RH  065%=      5-min Rain = 0
KST1 150745Z 14009KT 20/13 A2996 RMK A01 T02000129  RH  065%=      5-min Rain = 0
KST1 150750Z 14009KT 20/13 A2996 RMK A01 T01990129  RH  065%=      5-min Rain = 0
KST1 150755Z 14008KT 20/13 A2996 RMK A01 T01980128  RH  065%=      5-min Rain = 0
KST1 150800Z 14008KT 20/13 A2996 RMK A01 T01960127  RH  065%=      5-min Rain = 0
KST1 150805Z 15008KT 20/13 A2996 RMK A01 T01960127  RH  065%=      5-min Rain = 0
KST1 150810Z 16008KT 20/13 A2995 RMK A01 T01960126  RH  065%=      5-min Rain = 0
KST1 150815Z 16008KT 20/13 A2995 RMK A01 T01960126  RH  065%=      5-min Rain = 0
KST1 150820Z 16008KT 20/13 A2995 RMK A01 T01960125  RH  065%=      5-min Rain = 0
KST1 150825Z 16007KT 20/13 A2995 RMK A01 T01950125  RH  065%=      5-min Rain = 0
KST1 150830Z 16008KT 20/13 A2995 RMK A01 T01950125  RH  065%=      5-min Rain = 0
KST1 150835Z 16007KT 19/13 A2995 RMK A01 T01930125  RH  066%=      5-min Rain = 0
KST1 150840Z 16006KT 19/13 A2995 RMK A01 T01930125  RH  066%=      5-min Rain = 0
KST1 150845Z 18006KT 19/12 A2995 RMK A01 T01910124  RH  066%=      5-min Rain = 0
KST1 150850Z 19006KT 19/12 A2995 RMK A01 T01900124  RH  067%=      5-min Rain = 0
KST1 150855Z 18007KT 19/12 A2995 RMK A01 T01890124  RH  067%=      5-min Rain = 0
KST1 150900Z 17007KT 19/12 A2995 RMK A01 T01880124  RH  068%=      5-min Rain = 0
KST1 150905Z 18006KT 19/12 A2995 RMK A01 T01870123  RH  068%=      5-min Rain = 0
KST1 150910Z 18007KT 19/12 A2995 RMK A01 T01860123  RH  068%=      5-min Rain = 0
KST1 150915Z 18007KT 19/12 A2995 RMK A01 T01850122  RH  068%=      5-min Rain = 0
KST1 150920Z 18007KT 18/12 A2995 RMK A01 T01830122  RH  069%=      5-min Rain = 0
KST1 150925Z 18007KT 18/12 A2994 RMK A01 T01830122  RH  069%=      5-min Rain = 0
KST1 150930Z 19007KT 18/12 A2994 RMK A01 T01840124  RH  069%=      5-min Rain = 0
KST1 150935Z 19008KT 19/13 A2994 RMK A01 T01850125  RH  069%=      5-min Rain = 0
KST1 150940Z 18009KT 19/12 A2994 RMK A01 T01860124  RH  069%=      5-min Rain = 0
KST1 150945Z 18008KT 19/12 A2994 RMK A01 T01860123  RH  068%=      5-min Rain = 0
KST1 150950Z 18007KT 18/12 A2994 RMK A01 T01840122  RH  068%=      5-min Rain = 0
KST1 150955Z 18008KT 18/12 A2994 RMK A01 T01840123  RH  068%=      5-min Rain = 0
KST1 151000Z 17010KT 19/12 A2993 RMK A01 T01860124  RH  068%=      5-min Rain = 0
KST1 151005Z 17010KT 19/13 A2993 RMK A01 T01880125  RH  068%=      5-min Rain = 0
KST1 151010Z 18009KT 19/13 A2993 RMK A01 T01880126  RH  069%=      5-min Rain = 0
KST1 151015Z 18009KT 19/13 A2993 RMK A01 T01880128  RH  070%=      5-min Rain = 0
KST1 151020Z 18009KT 19/13 A2993 RMK A01 T01900131  RH  070%=      5-min Rain = 0
KST1 151025Z 19009KT 19/13 A2993 RMK A01 T01900131  RH  070%=      5-min Rain = 0
KST1 151030Z 18008KT 19/13 A2993 RMK A01 T01880131  RH  071%=      5-min Rain = 0
KST1 151035Z 18009KT 19/13 A2993 RMK A01 T01880132  RH  071%=      5-min Rain = 0
KST1 151040Z 17009KT 19/13 A2993 RMK A01 T01870131  RH  072%=      5-min Rain = 0
KST1 151045Z 17008KT 19/13 A2993 RMK A01 T01860132  RH  072%=      5-min Rain = 0
KST1 151050Z 17008KT 19/13 A2993 RMK A01 T01850132  RH  073%=      5-min Rain = 0
KST1 151055Z 18007KT 18/13 A2993 RMK A01 T01840133  RH  073%=      5-min Rain = 0
KST1 151100Z 18007KT 18/13 A2994 RMK A01 T01840133  RH  074%=      5-min Rain = 0
KST1 151105Z 18007KT 18/13 A2994 RMK A01 T01820133  RH  074%=      5-min Rain = 0
KST1 151110Z 18007KT 18/13 A2994 RMK A01 T01810132  RH  075%=      5-min Rain = 0
KST1 151115Z 17007KT 18/13 A2994 RMK A01 T01800132  RH  075%=      5-min Rain = 0
KST1 151120Z 17007KT 18/13 A2994 RMK A01 T01800132  RH  075%=      5-min Rain = 0
KST1 151125Z 16007KT 18/13 A2994 RMK A01 T01790133  RH  076%=      5-min Rain = 0
KST1 151130Z 16006KT 18/13 A2995 RMK A01 T01790134  RH  076%=      5-min Rain = 0
KST1 151135Z 16006KT 18/13 A2995 RMK A01 T01780133  RH  076%=      5-min Rain = 0
KST1 151140Z 16005KT 18/13 A2995 RMK A01 T01770133  RH  077%=      5-min Rain = 0
KST1 151145Z 15005KT 18/13 A2995 RMK A01 T01750131  RH  077%=      5-min Rain = 0
KST1 151150Z 15006KT 17/13 A2995 RMK A01 T01700127  RH  077%=      5-min Rain = 0
KST1 151155Z 16005KT 17/13 A2995 RMK A01 T01690127  RH  078%=      5-min Rain = 0
KST1 151200Z 17005KT 17/13 A2995 RMK A01 T01720131  RH  078%=      5-min Rain = 0
KST1 151205Z 17005KT 17/13 A2995 RMK A01 T01700128  RH  078%=      5-min Rain = 0
KST1 151210Z 16005KT 17/13 A2995 RMK A01 T01690127  RH  078%=      5-min Rain = 0
KST1 151215Z 16005KT 17/13 A2995 RMK A01 T01700129  RH  078%=      5-min Rain = 0
KST1 151220Z 15006KT 17/13 A2995 RMK A01 T01710127  RH  077%=      5-min Rain = 0
KST1 151225Z 15005KT 17/13 A2996 RMK A01 T01710126  RH  076%=      5-min Rain = 0
KST1 151230Z 16005KT 17/13 A2996 RMK A01 T01740129  RH  077%=      5-min Rain = 0
KST1 151235Z 16005KT 18/13 A2996 RMK A01 T01760132  RH  076%=      5-min Rain = 0
KST1 151240Z 16006KT 18/13 A2996 RMK A01 T01790134  RH  076%=      5-min Rain = 0
KST1 151245Z 16006KT 18/14 A2996 RMK A01 T01820136  RH  076%=      5-min Rain = 0
KST1 151250Z 16005KT 18/14 A2996 RMK A01 T01840138  RH  076%=      5-min Rain = 0
KST1 151255Z 17005KT 19/14 A2996 RMK A01 T01860140  RH  076%=      5-min Rain = 0
KST1 151300Z 17006KT 19/14 A2996 RMK A01 T01900143  RH  076%=      5-min Rain = 0
KST1 151305Z 17005KT 19/15 A2997 RMK A01 T01930145  RH  075%=      5-min Rain = 0
KST1 151310Z 17006KT 20/15 A2997 RMK A01 T01960148  RH  076%=      5-min Rain = 0
KST1 151315Z 17006KT 20/15 A2997 RMK A01 T02000151  RH  075%=      5-min Rain = 0
KST1 151320Z 18007KT 20/15 A2997 RMK A01 T02030154  RH  075%=      5-min Rain = 0
KST1 151325Z 18010KT 21/16 A2997 RMK A01 T02050156  RH  075%=      5-min Rain = 0
KST1 151330Z 17010KT 21/16 A2997 RMK A01 T02080159  RH  075%=      5-min Rain = 0
KST1 151335Z 18011KT 21/16 A2997 RMK A01 T02130162  RH  075%=      5-min Rain = 0
KST1 151340Z 18013KT 22/17 A2996 RMK A01 T02150165  RH  075%=      5-min Rain = 0
KST1 151345Z 18013KT 22/17 A2996 RMK A01 T02170166  RH  075%=      5-min Rain = 0
KST1 151350Z 18012KT 22/17 A2997 RMK A01 T02190167  RH  074%=      5-min Rain = 0
KST1 151355Z 17011KT 22/17 A2997 RMK A01 T02220166  RH  072%=      5-min Rain = 0
KST1 151400Z 18011KT 22/17 A2997 RMK A01 T02230165  RH  072%=      5-min Rain = 0
KST1 151405Z 17012KT 22/16 A2997 RMK A01 T02230164  RH  071%=      5-min Rain = 0
KST1 151410Z 17011KT 22/16 A2997 RMK A01 T02240164  RH  071%=      5-min Rain = 0
KST1 151415Z 17012KT 23/17 A2998 RMK A01 T02260165  RH  070%=      5-min Rain = 0
KST1 151420Z 18011KT 23/17 A2998 RMK A01 T02290166  RH  069%=      5-min Rain = 0
KST1 151425Z 18013KT 23/17 A2998 RMK A01 T02300166  RH  069%=      5-min Rain = 0
KST1 151430Z 18013KT 23/17 A2998 RMK A01 T02320166  RH  068%=      5-min Rain = 0
KST1 151435Z 18012KT 23/17 A2998 RMK A01 T02340167  RH  068%=      5-min Rain = 0
KST1 151440Z 18012KT 24/17 A2998 RMK A01 T02350168  RH  067%=      5-min Rain = 0
KST1 151445Z 18012KT 24/17 A2998 RMK A01 T02370167  RH  066%=      5-min Rain = 0
KST1 151450Z 18011KT 24/17 A2998 RMK A01 T02400166  RH  065%=      5-min Rain = 0
KST1 151455Z 18011KT 24/17 A2998 RMK A01 T02440167  RH  063%=      5-min Rain = 0
KST1 151500Z 18012KT 25/17 A2998 RMK A01 T02460165  RH  062%=      5-min Rain = 0
KST1 151505Z 18011KT 25/17 A2998 RMK A01 T02520166  RH  061%=      5-min Rain = 0
KST1 151510Z 18012KT 25/16 A2998 RMK A01 T02520164  RH  060%=      5-min Rain = 0
KST1 151515Z 19010KT 25/16 A2998 RMK A01 T02530164  RH  059%=      5-min Rain = 0
KST1 151520Z 20010G15KT 25/16 A2998 RMK A01 T02540162  RH  058%=      5-min Rain = 0
KST1 151525Z 19010KT 26/16 A2998 RMK A01 T02590161  RH  056%=      5-min Rain = 0
KST1 151530Z 19011KT 26/16 A2998 RMK A01 T02620161  RH  055%=      5-min Rain = 0
KST1 151535Z 18012KT 26/16 A2998 RMK A01 T02640161  RH  054%=      5-min Rain = 0
KST1 151540Z 18011KT 27/16 A2998 RMK A01 T02670160  RH  053%=      5-min Rain = 0
KST1 151545Z 18011G16KT 27/16 A2998 RMK A01 T02690159  RH  052%=      5-min Rain = 0
KST1 151550Z 18011KT 27/16 A2998 RMK A01 T02720159  RH  051%=      5-min Rain = 0
KST1 151555Z 19009KT 27/16 A2998 RMK A01 T02740158  RH  050%=      5-min Rain = 0
KST1 151600Z 19010KT 28/16 A2998 RMK A01 T02760156  RH  049%=      5-min Rain = 0
KST1 151605Z 19010KT 28/16 A2998 RMK A01 T02790157  RH  049%=      5-min Rain = 0
KST1 151610Z 20009G14KT 28/16 A2998 RMK A01 T02820157  RH  048%=      5-min Rain = 0
KST1 151615Z 20010KT 28/16 A2998 RMK A01 T02830155  RH  047%=      5-min Rain = 0
KST1 151620Z 20011KT 29/15 A2998 RMK A01 T02850154  RH  046%=      5-min Rain = 0
KST1 151625Z 19010G15KT 29/16 A2999 RMK A01 T02860156  RH  046%=      5-min Rain = 0
KST1 151630Z 20010G15KT 29/15 A2999 RMK A01 T02870153  RH  045%=      5-min Rain = 0
KST1 151635Z 21009G15KT 29/15 A2998 RMK A01 T02910153  RH  044%=      5-min Rain = 0
KST1 151640Z 19009G15KT 29/15 A2999 RMK A01 T02910152  RH  044%=      5-min Rain = 0
KST1 151645Z 21009KT 30/15 A2999 RMK A01 T02950151  RH  042%=      5-min Rain = 0
KST1 151650Z 21008G13KT 30/15 A2999 RMK A01 T02990150  RH  041%=      5-min Rain = 0
KST1 151655Z 21009G15KT 30/15 A2999 RMK A01 T03010146  RH  040%=      5-min Rain = 0
KST1 151700Z 21009KT 30/15 A2999 RMK A01 T03010146  RH  040%=      5-min Rain = 0
KST1 151705Z 22007G12KT 30/15 A2999 RMK A01 T03040146  RH  039%=      5-min Rain = 0
KST1 151710Z 21008KT 31/15 A2999 RMK A01 T03090145  RH  038%=      5-min Rain = 0
KST1 151715Z 23004G12KT 31/14 A2998 RMK A01 T03060144  RH  038%=      5-min Rain = 0
KST1 151720Z 25008G13KT 32/14 A2998 RMK A01 T03160136  RH  034%=      5-min Rain = 0
KST1 151725Z 24007G13KT 32/14 A2998 RMK A01 T03160135  RH  034%=      5-min Rain = 0
KST1 151730Z 22006G11KT 31/14 A2998 RMK A01 T03140136  RH  035%=      5-min Rain = 0
KST1 151735Z 26004KT 32/14 A2998 RMK A01 T03170140  RH  035%=      5-min Rain = 0
KST1 151740Z 23009KT 33/14 A2998 RMK A01 T03250138  RH  033%=      5-min Rain = 0
KST1 151745Z 21008KT 32/14 A2998 RMK A01 T03220136  RH  033%=      5-min Rain = 0
KST1 151750Z 20006G11KT 32/13 A2997 RMK A01 T03220134  RH  033%=      5-min Rain = 0
KST1 151755Z 24008G13KT 33/13 A2997 RMK A01 T03270127  RH  030%=      5-min Rain = 0
KST1 151800Z 23008KT 33/13 A2997 RMK A01 T03260128  RH  031%=      5-min Rain = 0
KST1 151805Z 20006G12KT 33/14 A2996 RMK A01 T03260135  RH  032%=      5-min Rain = 0
KST1 151810Z 22009KT 33/12 A2996 RMK A01 T03320123  RH  029%=      5-min Rain = 0
KST1 151815Z 26004KT 33/13 A2996 RMK A01 T03290127  RH  030%=      5-min Rain = 0
KST1 151820Z 24005G10KT 33/12 A2996 RMK A01 T03330122  RH  028%=      5-min Rain = 0
KST1 151825Z 29004G9KT 33/11 A2996 RMK A01 T03340113  RH  026%=      5-min Rain = 0
KST1 151830Z 21005G10KT 33/12 A2996 RMK A01 T03340116  RH  027%=      5-min Rain = 0
KST1 151835Z 05002KT 34/11 A2995 RMK A01 T03350113  RH  026%=      5-min Rain = 0
KST1 151840Z 00003KT 34/11 A2995 RMK A01 T03360113  RH  026%=      5-min Rain = 0
KST1 151845Z 20005KT 34/11 A2995 RMK A01 T03410106  RH  024%=      5-min Rain = 0
KST1 151850Z 17006KT 35/10 A2995 RMK A01 T03470098  RH  022%=      5-min Rain = 0
KST1 151855Z 14006KT 35/09 A2995 RMK A01 T03460092  RH  022%=      5-min Rain = 0
KST1 151900Z 13007KT 35/08 A2994 RMK A01 T03500078  RH  019%=      5-min Rain = 0
KST1 151905Z 11003KT 35/08 A2994 RMK A01 T03480080  RH  020%=      5-min Rain = 0
KST1 151910Z 20005KT 35/08 A2994 RMK A01 T03510078  RH  019%=      5-min Rain = 0
KST1 151915Z 19006KT 35/08 A2994 RMK A01 T03500076  RH  019%=      5-min Rain = 0
KST1 151920Z 18004KT 35/08 A2994 RMK A01 T03510078  RH  019%=      5-min Rain = 0
KST1 151925Z 10003G9KT 35/08 A2993 RMK A01 T03500081  RH  020%=      5-min Rain = 0
KST1 151930Z 12005KT 35/10 A2993 RMK A01 T03490095  RH  022%=      5-min Rain = 0
KST1 151935Z 10006G12KT 35/09 A2993 RMK A01 T03490088  RH  021%=      5-min Rain = 0
KST1 151940Z 14007KT 35/07 A2993 RMK A01 T03470074  RH  019%=      5-min Rain = 0
KST1 151945Z 15010KT 35/07 A2992 RMK A01 T03450065  RH  018%=      5-min Rain = 0
KST1 151950Z 13007G12KT 34/06 A2992 RMK A01 T03440055  RH  017%=      5-min Rain = 0
KST1 151955Z 13005G11KT 35/06 A2992 RMK A01 T03500059  RH  017%=      5-min Rain = 0
KST1 152000Z 13010KT 35/05 A2992 RMK A01 T03520052  RH  016%=      5-min Rain = 0
KST1 152005Z 13007G13KT 35/05 A2991 RMK A01 T03530051  RH  016%=      5-min Rain = 0
KST1 152010Z 12004G12KT 35/05 A2991 RMK A01 T03520046  RH  015%=      5-min Rain = 0
KST1 152015Z 14007KT 36/04 A2991 RMK A01 T03560038  RH  014%=      5-min Rain = 0
KST1 152020Z 14004KT 36/05 A2991 RMK A01 T03550047  RH  015%=      5-min Rain = 0
KST1 152025Z 18003KT 36/05 A2991 RMK A01 T03550047  RH  015%=      5-min Rain = 0
KST1 152030Z 12004G9KT 35/04 A2991 RMK A01 T03510041  RH  015%=      5-min Rain = 0
KST1 152035Z 16002G9KT 36/04 A299 RMK A01 T03570042  RH  014%=      5-min Rain = 0
KST1 152040Z 15004G9KT 36/05 A299 RMK A01 T03550046  RH  015%=      5-min Rain = 0
KST1 152045Z 04003KT 36/04 A299 RMK A01 T03610042  RH  014%=      5-min Rain = 0
KST1 152050Z 15005KT 36/04 A2989 RMK A01 T03600040  RH  014%=      5-min Rain = 0
KST1 152055Z 17005KT 35/04 A2989 RMK A01 T03520041  RH  015%=      5-min Rain = 0
KST1 152100Z 17006KT 35/04 A2989 RMK A01 T03510041  RH  015%=      5-min Rain = 0
KST1 152105Z 17007G12KT 36/04 A2989 RMK A01 T03550041  RH  014%=      5-min Rain = 0
KST1 152110Z 19005KT 36/04 A2988 RMK A01 T03550040  RH  014%=      5-min Rain = 0
KST1 152115Z 23003KT 36/04 A2988 RMK A01 T03550040  RH  014%=      5-min Rain = 0
KST1 152120Z 24006G12KT 36/04 A2988 RMK A01 T03550039  RH  014%=      5-min Rain = 0
KST1 152125Z 22003KT 36/04 A2988 RMK A01 T03600039  RH  014%=      5-min Rain = 0
KST1 152130Z 23005KT 36/04 A2987 RMK A01 T03610039  RH  014%=      5-min Rain = 0
KST1 152135Z 26004KT 36/04 A2987 RMK A01 T03630039  RH  014%=      5-min Rain = 0
KST1 152140Z 28002KT 36/04 A2987 RMK A01 T03610035  RH  013%=      5-min Rain = 0
KST1 152145Z 27004G9KT 36/04 A2987 RMK A01 T03630035  RH  013%=      5-min Rain = 0
KST1 152150Z 26004KT 36/04 A2986 RMK A01 T03620038  RH  013%=      5-min Rain = 0
KST1 152155Z 21002KT 37/03 A2986 RMK A01 T03650032  RH  013%=      5-min Rain = 0
KST1 152200Z 17004G9KT 37/02 A2986 RMK A01 T03650019  RH  012%=      5-min Rain = 0
KST1 152205Z 26004G10KT 37/01 A2986 RMK A01 T03700006  RH  010%=      5-min Rain = 0
KST1 152210Z 03009G34KT 37/04 A2986 RMK A01 T03660042  RH  015%=      5-min Rain = 0
KST1 152215Z 05024G32KT 30/10 A2988 RMK A01 T02990098  RH  029%=      5-min Rain = 0
KST1 152220Z 06026G34KT 30/10 A2987 RMK A01 T03020095  RH  028%=      5-min Rain = 0
KST1 152225Z 06028G34KT 30/08 A2988 RMK A01 T03040083  RH  026%=      5-min Rain = 0
KST1 152230Z 07030G36KT 31/09 A2988 RMK A01 T03060087  RH  026%=      5-min Rain = 0
KST1 152235Z 06031G36KT 30/08 A2988 RMK A01 T03030081  RH  026%=      5-min Rain = 0
KST1 152240Z 06028G34KT 31/08 A2988 RMK A01 T03060078  RH  024%=      5-min Rain = 0
KST1 152245Z 07027G35KT 30/10 A2988 RMK A01 T03030103  RH  030%=      5-min Rain = 0
KST1 152250Z 07027G33KT 30/11 A2988 RMK A01 T02970113  RH  033%=      5-min Rain = 0
KST1 152255Z 07025G31KT 30/11 A2988 RMK A01 T02980108  RH  031%=      5-min Rain = 0
KST1 152300Z 10024G35KT 30/10 A2991 RMK A01 T02980098  RH  029%=      5-min Rain = 0
KST1 152305Z 11023G30KT 29/09 A2992 RMK A01 T02930089  RH  028%=      5-min Rain = 0
KST1 152310Z 11022G27KT 30/10 A299 RMK A01 T02950095  RH  029%=      5-min Rain = 0
KST1 152315Z 10023G30KT 30/10 A299 RMK A01 T02990097  RH  029%=      5-min Rain = 0
KST1 152320Z 10021G26KT 30/10 A299 RMK A01 T02990103  RH  030%=      5-min Rain = 0
KST1 152325Z 11022G28KT 30/11 A299 RMK A01 T03000108  RH  031%=      5-min Rain = 0
KST1 152330Z 11025KT 29/11 A299 RMK A01 T02900113  RH  034%=      5-min Rain = 0
KST1 152335Z 11026G34KT 29/10 A299 RMK A01 T02880099  RH  031%=      5-min Rain = 0
KST1 152340Z 11027G34KT 27/12 A299 RMK A01 T02680120  RH  040%=      5-min Rain = 0
KST1 152345Z 10027KT 27/13 A2989 RMK A01 T02660125  RH  042%=      5-min Rain = 0
KST1 152350Z 10022G27KT 27/12 A2989 RMK A01 T02700122  RH  041%=      5-min Rain = 0
KST1 152355Z 10018KT 28/12 A2989 RMK A01 T02790119  RH  038%=      5-min Rain = 0
KST1 160000Z 10020KT 28/13 A2988 RMK A01 T02800125  RH  039%=      5-min Rain = 0
KST1 160005Z 11017G23KT 28/13 A2989 RMK A01 T02780133  RH  042%=      5-min Rain = 0
KST1 160010Z 11015KT 28/14 A2989 RMK A01 T02750138  RH  044%=      5-min Rain = 0
KST1 160015Z 11014KT 28/14 A2989 RMK A01 T02790136  RH  042%=      5-min Rain = 0
KST1 160020Z 11016G22KT 28/14 A2989 RMK A01 T02810136  RH  042%=      5-min Rain = 0
KST1 160025Z 11017KT 28/14 A2989 RMK A01 T02760138  RH  044%=      5-min Rain = 0
KST1 160030Z 12018KT 27/13 A2989 RMK A01 T02720134  RH  043%=      5-min Rain = 0
KST1 160035Z 11017KT 27/13 A2989 RMK A01 T02730129  RH  042%=      5-min Rain = 0
KST1 160040Z 11015KT 27/13 A2989 RMK A01 T02700129  RH  042%=      5-min Rain = 0
KST1 160045Z 12016KT 27/12 A2989 RMK A01 T02690124  RH  041%=      5-min Rain = 0
KST1 160050Z 11016G21KT 27/12 A2989 RMK A01 T02670124  RH  042%=      5-min Rain = 0
KST1 160055Z 11017KT 27/13 A2989 RMK A01 T02650126  RH  043%=      5-min Rain = 0
KST1 160100Z 11016KT 26/13 A2989 RMK A01 T02630128  RH  044%=      5-min Rain = 0
KST1 160105Z 11015KT 26/13 A2989 RMK A01 T02600131  RH  046%=      5-min Rain = 0
KST1 160110Z 12013KT 26/13 A2989 RMK A01 T02580131  RH  046%=      5-min Rain = 0
KST1 160115Z 12014KT 26/13 A2989 RMK A01 T02580127  RH  045%=      5-min Rain = 0
KST1 160120Z 12014KT 26/12 A2989 RMK A01 T02570124  RH  044%=      5-min Rain = 0
KST1 160125Z 12014KT 26/12 A2989 RMK A01 T02570122  RH  044%=      5-min Rain = 0
KST1 160130Z 12013KT 26/12 A299 RMK A01 T02570120  RH  043%=      5-min Rain = 0
KST1 160135Z 12014KT 26/12 A299 RMK A01 T02570117  RH  042%=      5-min Rain = 0
KST1 160140Z 12017KT 25/12 A299 RMK A01 T02530116  RH  043%=      5-min Rain = 0
KST1 160145Z 12017KT 25/12 A299 RMK A01 T02490121  RH  046%=      5-min Rain = 0
KST1 160150Z 12015G20KT 25/12 A2991 RMK A01 T02460124  RH  047%=      5-min Rain = 0
KST1 160155Z 11015KT 25/12 A2991 RMK A01 T02450124  RH  048%=      5-min Rain = 0
KST1 160200Z 11012KT 24/13 A2991 RMK A01 T02440125  RH  048%=      5-min Rain = 0
KST1 160205Z 11012KT 24/12 A2991 RMK A01 T02440123  RH  048%=      5-min Rain = 0
KST1 160210Z 11015KT 24/12 A2991 RMK A01 T02440123  RH  048%=      5-min Rain = 0
KST1 160215Z 11013KT 24/13 A2991 RMK A01 T02420125  RH  049%=      5-min Rain = 0
KST1 160220Z 12014KT 24/13 A2991 RMK A01 T02410125  RH  049%=      5-min Rain = 0
KST1 160225Z 12013KT 24/13 A2991 RMK A01 T02390127  RH  050%=      5-min Rain = 0
KST1 160230Z 12012KT 24/13 A2991 RMK A01 T02380127  RH  051%=      5-min Rain = 0
KST1 160235Z 12011KT 24/13 A2991 RMK A01 T02370126  RH  051%=      5-min Rain = 0
KST1 160240Z 12011KT 24/13 A2991 RMK A01 T02370125  RH  050%=      5-min Rain = 0
KST1 160245Z 12010KT 24/12 A2991 RMK A01 T02360124  RH  051%=      5-min Rain = 0
KST1 160250Z 12009KT 24/13 A2991 RMK A01 T02350125  RH  051%=      5-min Rain = 0
KST1 160255Z 13009KT 24/12 A2992 RMK A01 T02350124  RH  051%=      5-min Rain = 0
KST1 160300Z 13010KT 23/12 A2992 RMK A01 T02340124  RH  051%=      5-min Rain = 0
KST1 160305Z 12012KT 23/13 A2993 RMK A01 T02340126  RH  052%=      5-min Rain = 0
KST1 160310Z 11014KT 23/13 A2994 RMK A01 T02340126  RH  052%=      5-min Rain = 0
KST1 160315Z 12013KT 23/13 A2994 RMK A01 T02330125  RH  052%=      5-min Rain = 0
KST1 160320Z 11012KT 23/12 A2994 RMK A01 T02320124  RH  052%=      5-min Rain = 0
KST1 160325Z 11013KT 23/12 A2994 RMK A01 T02300123  RH  052%=      5-min Rain = 0
KST1 160330Z 10013KT 23/12 A2994 RMK A01 T02290123  RH  052%=      5-min Rain = 0
KST1 160335Z 12011KT 23/12 A2995 RMK A01 T02270124  RH  053%=      5-min Rain = 0
KST1 160340Z 12011KT 23/13 A2995 RMK A01 T02260125  RH  054%=      5-min Rain = 0
KST1 160345Z 11013KT 23/13 A2995 RMK A01 T02250125  RH  054%=      5-min Rain = 0
KST1 160350Z 11013G18KT 22/13 A2996 RMK A01 T02230126  RH  055%=      5-min Rain = 0
KST1 160355Z 11014KT 22/13 A2996 RMK A01 T02220129  RH  057%=      5-min Rain = 0
KST1 160400Z 11014KT 22/13 A2997 RMK A01 T02210131  RH  058%=      5-min Rain = 0
KST1 160405Z 11013KT 22/13 A2997 RMK A01 T02200131  RH  058%=      5-min Rain = 0
KST1 160410Z 10013KT 22/13 A2998 RMK A01 T02190132  RH  059%=      5-min Rain = 0
KST1 160415Z 11014KT 22/13 A2997 RMK A01 T02180133  RH  059%=      5-min Rain = 0
KST1 160420Z 11013KT 22/13 A2998 RMK A01 T02180133  RH  060%=      5-min Rain = 0
KST1 160425Z 10013KT 22/13 A2998 RMK A01 T02170133  RH  060%=      5-min Rain = 0
KST1 160430Z 10015KT 22/13 A2999 RMK A01 T02160134  RH  061%=      5-min Rain = 0
KST1 160435Z 10015KT 21/13 A2999 RMK A01 T02140134  RH  061%=      5-min Rain = 0
KST1 160440Z 09015KT 21/14 A2999 RMK A01 T02120135  RH  063%=      5-min Rain = 0
KST1 160445Z 09015KT 21/14 A2999 RMK A01 T02090137  RH  065%=      5-min Rain = 0
KST1 160450Z 09016KT 21/14 A2999 RMK A01 T02070139  RH  067%=      5-min Rain = 0
KST1 160455Z 09015KT 21/14 A2999 RMK A01 T02070139  RH  066%=      5-min Rain = 0

Page generated in 0.0095 seconds.